Time;durP1;ratioP1;P1;durP2;ratioP2;P2;SDS_P1;SDS_P2;PMS_P1;PMS_P2;Temp;Humidity;BMP_temperature;BMP_pressure;BME280_temperature;BME280_humidity;BME280_pressure;Samples;Min_cycle;Max_cycle;Signal;HPM_P1;HPM_P2
2023/10/31 00:00:05;;;;;;;2.45;2.00;;;15.60;76.90;;;;;;4996611;28;20022;-75
2023/10/31 00:02:31;;;;;;;2.47;2.08;;;15.60;76.90;;;;;;5034618;28;20382;-75
2023/10/31 00:04:57;;;;;;;2.78;1.98;;;15.60;77.00;;;;;;4991060;28;20033;-77
2023/10/31 00:07:23;;;;;;;2.00;1.80;;;15.60;77.00;;;;;;5025789;28;20440;-75
2023/10/31 00:09:49;;;;;;;1.98;1.70;;;15.60;77.00;;;;;;5027692;28;20116;-76
2023/10/31 00:12:14;;;;;;;1.88;1.50;;;15.60;77.00;;;;;;4981804;28;20398;-75
2023/10/31 00:14:40;;;;;;;1.50;1.40;;;15.60;77.00;;;;;;5039443;28;20037;-78
2023/10/31 00:17:06;;;;;;;1.67;1.58;;;15.50;77.00;;;;;;4996946;28;20030;-76
2023/10/31 00:19:31;;;;;;;1.60;1.50;;;15.50;77.00;;;;;;5045200;28;20080;-76
2023/10/31 00:21:57;;;;;;;1.73;1.40;;;15.50;77.00;;;;;;5011379;28;20482;-75
2023/10/31 00:24:23;;;;;;;1.50;1.40;;;15.50;77.00;;;;;;5028245;28;20068;-78
2023/10/31 00:26:49;;;;;;;1.30;1.20;;;15.50;77.00;;;;;;5026882;28;20034;-78
2023/10/31 00:29:14;;;;;;;2.33;1.50;;;15.50;77.00;;;;;;5028791;28;20474;-76
2023/10/31 00:31:41;;;;;;;1.33;1.23;;;15.50;77.00;;;;;;5013391;28;20470;-78
2023/10/31 00:34:08;;;;;;;1.40;1.30;;;15.50;77.00;;;;;;5028933;28;20469;-75
2023/10/31 00:36:34;;;;;;;1.35;1.25;;;15.40;77.00;;;;;;4981252;28;20116;-75
2023/10/31 00:38:59;;;;;;;1.30;1.20;;;15.40;77.00;;;;;;5029101;28;20557;-76
2023/10/31 00:41:25;;;;;;;1.15;1.10;;;15.40;77.00;;;;;;5024540;28;20035;-75
2023/10/31 00:43:51;;;;;;;1.83;1.40;;;15.40;77.00;;;;;;5011512;28;20033;-74
2023/10/31 00:46:17;;;;;;;1.45;1.20;;;15.40;77.00;;;;;;5013880;28;20061;-76
2023/10/31 00:48:42;;;;;;;1.02;1.00;;;15.40;77.00;;;;;;5028009;28;20115;-77
2023/10/31 00:51:08;;;;;;;1.98;1.10;;;15.40;77.00;;;;;;5029267;28;20025;-75
2023/10/31 00:53:34;;;;;;;1.98;1.30;;;15.30;77.00;;;;;;5013694;28;20647;-74
2023/10/31 00:56:01;;;;;;;1.35;1.20;;;15.30;77.00;;;;;;5006100;28;20552;-76
2023/10/31 00:58:26;;;;;;;1.00;1.00;;;15.30;77.10;;;;;;5030603;28;20025;-75
2023/10/31 01:00:52;;;;;;;1.10;1.00;;;15.30;77.10;;;;;;5038590;28;20032;-75
2023/10/31 01:03:19;;;;;;;1.15;1.08;;;15.30;77.10;;;;;;5007772;28;20496;-75
2023/10/31 01:05:44;;;;;;;1.10;1.10;;;15.30;77.10;;;;;;5022118;28;20033;-75
2023/10/31 01:08:10;;;;;;;1.00;0.90;;;15.20;77.10;;;;;;5032410;28;20474;-75
2023/10/31 01:10:36;;;;;;;1.10;1.00;;;15.20;77.10;;;;;;5033215;28;20025;-75
2023/10/31 01:13:02;;;;;;;1.13;1.02;;;15.20;77.20;;;;;;5036096;28;20048;-74
2023/10/31 01:15:28;;;;;;;0.93;0.93;;;15.10;77.10;;;;;;5030614;28;20083;-74
2023/10/31 01:17:54;;;;;;;1.13;1.02;;;15.20;77.30;;;;;;5027467;28;20037;-74
2023/10/31 01:20:20;;;;;;;1.30;1.20;;;15.10;77.20;;;;;;5011075;28;20098;-74
2023/10/31 01:22:46;;;;;;;2.17;1.00;;;15.10;77.20;;;;;;5026211;28;20494;-76
2023/10/31 01:25:11;;;;;;;1.25;1.15;;;15.10;77.20;;;;;;5025788;28;20040;-75
2023/10/31 01:27:37;;;;;;;1.98;1.30;;;15.10;77.20;;;;;;5027606;28;20032;-75
2023/10/31 01:30:04;;;;;;;2.67;1.45;;;15.10;77.30;;;;;;5014724;28;20036;-74
2023/10/31 01:32:29;;;;;;;1.80;1.50;;;15.00;77.20;;;;;;5014296;28;20067;-76
2023/10/31 01:34:55;;;;;;;1.50;1.30;;;15.00;77.20;;;;;;5043699;28;20120;-74
2023/10/31 01:37:21;;;;;;;1.70;1.50;;;15.00;77.20;;;;;;4996612;28;20048;-75
2023/10/31 01:39:48;;;;;;;1.83;1.50;;;15.00;77.20;;;;;;5030315;28;20034;-74
2023/10/31 01:42:15;;;;;;;1.67;1.58;;;15.00;77.30;;;;;;5014451;28;20037;-76
2023/10/31 01:44:40;;;;;;;2.10;1.85;;;14.90;77.20;;;;;;5011289;28;20041;-75
2023/10/31 01:47:06;;;;;;;2.35;1.80;;;15.00;77.30;;;;;;4996422;28;20021;-76
2023/10/31 01:49:32;;;;;;;2.55;1.67;;;14.90;77.30;;;;;;5009202;28;20026;-75
2023/10/31 01:52:01;;;;;;;3.10;2.00;;;14.90;77.40;;;;;;5029511;28;20030;-75
2023/10/31 01:54:26;;;;;;;2.45;2.03;;;14.90;77.30;;;;;;5026276;28;20030;-75
2023/10/31 01:56:57;;;;;;;3.60;2.05;;;14.90;77.30;;;;;;5009388;28;20502;-76
2023/10/31 01:59:24;;;;;;;2.60;2.28;;;14.90;77.40;;;;;;5009453;28;20036;-75
2023/10/31 02:01:50;;;;;;;3.33;2.42;;;14.80;77.40;;;;;;5008804;28;20029;-75
2023/10/31 02:04:16;;;;;;;3.72;2.53;;;14.80;77.40;;;;;;5010269;28;20045;-75
2023/10/31 02:06:41;;;;;;;3.55;2.30;;;14.80;77.40;;;;;;5026907;28;20041;-75
2023/10/31 02:09:07;;;;;;;3.25;2.10;;;14.80;77.50;;;;;;5009609;28;20034;-75
2023/10/31 02:11:33;;;;;;;2.95;2.25;;;14.80;77.50;;;;;;5026451;28;20046;-77
2023/10/31 02:13:59;;;;;;;3.38;2.40;;;14.80;77.50;;;;;;5016045;28;20543;-76
2023/10/31 02:16:25;;;;;;;3.10;2.58;;;14.80;77.50;;;;;;5008937;28;20084;-75
2023/10/31 02:18:51;;;;;;;3.60;2.75;;;14.70;77.50;;;;;;5013922;28;20509;-75
2023/10/31 02:21:19;;;;;;;4.32;3.03;;;14.70;77.50;;;;;;5013402;28;20033;-77
2023/10/31 02:23:59;;;;;;;3.85;2.75;;;14.70;77.50;;;;;;5025637;28;20087;-75
2023/10/31 02:26:32;;;;;;;4.25;2.97;;;14.70;77.50;;;;;;5024297;28;20044;-76
2023/10/31 02:28:58;;;;;;;4.50;2.80;;;14.70;77.50;;;;;;5012479;28;20025;-74
2023/10/31 02:31:24;;;;;;;3.53;2.90;;;14.70;77.50;;;;;;4997652;28;20064;-77
2023/10/31 02:33:49;;;;;;;3.15;2.60;;;14.60;77.50;;;;;;5025992;28;20119;-75
2023/10/31 02:36:15;;;;;;;3.80;2.47;;;14.60;77.50;;;;;;5009229;28;20044;-75
2023/10/31 02:38:41;;;;;;;4.00;2.83;;;14.60;77.50;;;;;;5011528;28;20116;-75
2023/10/31 02:41:06;;;;;;;3.70;2.42;;;14.60;77.50;;;;;;5027342;28;20026;-75
2023/10/31 02:43:32;;;;;;;4.10;2.83;;;14.60;77.60;;;;;;5010199;28;21037;-76
2023/10/31 02:45:58;;;;;;;4.05;2.80;;;14.60;77.60;;;;;;5009741;28;20041;-76
2023/10/31 02:48:24;;;;;;;4.35;2.83;;;14.60;77.60;;;;;;5009180;28;20029;-75
2023/10/31 02:50:51;;;;;;;3.80;2.90;;;14.60;77.60;;;;;;5009506;28;20124;-75
2023/10/31 02:53:18;;;;;;;2.88;2.47;;;14.60;77.60;;;;;;5026766;28;20038;-76
2023/10/31 02:55:44;;;;;;;4.60;2.85;;;14.60;78.00;;;;;;5012435;28;20550;-75
2023/10/31 02:58:10;;;;;;;3.80;2.75;;;14.60;77.60;;;;;;5009755;28;20033;-75
2023/10/31 03:00:36;;;;;;;4.10;2.90;;;14.50;77.60;;;;;;5031406;28;20049;-75
2023/10/31 03:03:02;;;;;;;3.67;2.72;;;14.60;77.60;;;;;;5008754;28;20544;-75
2023/10/31 03:05:28;;;;;;;3.70;2.75;;;14.50;77.60;;;;;;5015465;28;20044;-75
2023/10/31 03:07:54;;;;;;;3.88;2.95;;;14.50;77.60;;;;;;5030902;28;20026;-74
2023/10/31 03:10:21;;;;;;;4.85;3.08;;;14.50;77.60;;;;;;5036826;28;20033;-75
2023/10/31 03:12:47;;;;;;;4.20;3.17;;;14.50;77.70;;;;;;5027868;28;20103;-77
2023/10/31 03:15:13;;;;;;;4.47;3.20;;;14.50;77.70;;;;;;5025871;28;20493;-74
2023/10/31 03:17:39;;;;;;;4.88;3.40;;;14.50;77.70;;;;;;5028452;28;20161;-76
2023/10/31 03:20:05;;;;;;;4.80;3.47;;;14.50;77.70;;;;;;5009659;28;20042;-75
2023/10/31 03:22:31;;;;;;;4.40;3.38;;;14.50;77.80;;;;;;4995067;28;20044;-76
2023/10/31 03:24:56;;;;;;;4.18;3.13;;;14.50;77.70;;;;;;5009815;28;20037;-76
2023/10/31 03:27:22;;;;;;;4.35;3.42;;;14.50;77.70;;;;;;5025193;28;20064;-75
2023/10/31 03:29:48;;;;;;;5.35;3.67;;;14.50;77.70;;;;;;5009110;28;20657;-75
2023/10/31 03:32:15;;;;;;;4.95;3.38;;;14.50;77.70;;;;;;5010210;28;20030;-76
2023/10/31 03:34:41;;;;;;;4.47;3.22;;;14.50;77.80;;;;;;5026885;28;20076;-75
2023/10/31 03:37:07;;;;;;;4.75;3.47;;;14.40;77.60;;;;;;5007980;28;20069;-75
2023/10/31 03:39:32;;;;;;;4.25;3.35;;;14.40;77.70;;;;;;5009075;28;20394;-75
2023/10/31 03:41:59;;;;;;;4.78;3.83;;;14.40;77.60;;;;;;5010586;28;20033;-75
2023/10/31 03:44:24;;;;;;;5.38;3.63;;;14.40;77.70;;;;;;5023161;28;20026;-75
2023/10/31 03:46:50;;;;;;;4.93;3.50;;;14.40;77.70;;;;;;5025027;28;20521;-76
2023/10/31 03:49:16;;;;;;;4.57;3.47;;;14.40;77.80;;;;;;5016555;28;20037;-74
2023/10/31 03:51:42;;;;;;;4.55;3.47;;;14.40;77.80;;;;;;5013815;28;20042;-75
2023/10/31 03:54:08;;;;;;;4.60;3.33;;;14.40;77.80;;;;;;5028984;28;20045;-75
2023/10/31 03:56:41;;;;;;;5.53;3.63;;;14.40;77.80;;;;;;5030641;28;20080;-76
2023/10/31 03:59:07;;;;;;;4.38;3.40;;;14.40;77.80;;;;;;5013617;28;20171;-75
2023/10/31 04:01:33;;;;;;;4.82;3.95;;;14.40;77.80;;;;;;5014558;28;20115;-75
2023/10/31 04:04:00;;;;;;;4.78;3.58;;;14.40;77.80;;;;;;5012549;28;20036;-76
2023/10/31 04:06:25;;;;;;;5.18;3.55;;;14.40;77.80;;;;;;5027586;28;20037;-76
2023/10/31 04:08:51;;;;;;;4.50;3.30;;;14.30;77.80;;;;;;5013775;28;20025;-75
2023/10/31 04:11:17;;;;;;;4.63;3.70;;;14.30;77.80;;;;;;5030936;28;20485;-75
2023/10/31 04:13:42;;;;;;;4.93;3.40;;;14.30;77.80;;;;;;5029777;28;20049;-77
2023/10/31 04:16:08;;;;;;;4.95;3.45;;;14.30;77.80;;;;;;4995065;28;20116;-75
2023/10/31 04:18:34;;;;;;;4.50;3.47;;;14.30;77.90;;;;;;5010167;28;20022;-75
2023/10/31 04:20:59;;;;;;;4.63;3.33;;;14.30;77.80;;;;;;5014310;28;20030;-75
2023/10/31 04:23:25;;;;;;;4.13;3.05;;;14.30;77.90;;;;;;5028869;28;20029;-74
2023/10/31 04:25:52;;;;;;;4.65;3.45;;;14.30;77.90;;;;;;5012361;28;20082;-75
2023/10/31 04:28:18;;;;;;;4.10;3.22;;;14.30;77.90;;;;;;5028567;28;20030;-75
2023/10/31 04:30:44;;;;;;;3.72;2.83;;;14.30;77.90;;;;;;5011271;28;20608;-76
2023/10/31 04:33:10;;;;;;;4.10;3.03;;;14.30;77.90;;;;;;5012319;28;20116;-76
2023/10/31 04:35:35;;;;;;;4.72;3.00;;;14.30;77.90;;;;;;4994832;28;20904;-78
2023/10/31 04:38:01;;;;;;;3.33;2.67;;;14.20;77.90;;;;;;5028205;28;20033;-76
2023/10/31 04:40:27;;;;;;;4.03;3.03;;;14.20;78.00;;;;;;5015927;28;20098;-75
2023/10/31 04:42:52;;;;;;;3.90;2.92;;;14.20;77.90;;;;;;5028904;28;20041;-76
2023/10/31 04:45:18;;;;;;;3.72;2.85;;;14.20;77.90;;;;;;5002742;28;20036;-75
2023/10/31 04:47:44;;;;;;;3.92;2.92;;;14.20;78.00;;;;;;5015732;28;20068;-75
2023/10/31 04:50:09;;;;;;;3.42;2.53;;;14.20;77.90;;;;;;5032248;28;20061;-75
2023/10/31 04:52:35;;;;;;;3.10;2.45;;;14.20;78.60;;;;;;5017364;28;20044;-75
2023/10/31 04:55:01;;;;;;;2.78;2.20;;;14.20;77.90;;;;;;5022119;28;20046;-77
2023/10/31 04:57:27;;;;;;;3.75;2.40;;;14.20;77.90;;;;;;5016697;28;20056;-76
2023/10/31 04:59:54;;;;;;;3.25;2.40;;;14.20;77.90;;;;;;5008099;28;20123;-75
2023/10/31 05:02:23;;;;;;;2.72;2.40;;;14.20;77.90;;;;;;5049010;28;20029;-74
2023/10/31 05:04:50;;;;;;;3.35;2.50;;;14.20;78.00;;;;;;5037961;28;20026;-76
2023/10/31 05:07:19;;;;;;;3.65;2.78;;;14.20;78.00;;;;;;5032589;28;20509;-75
2023/10/31 05:09:45;;;;;;;3.55;2.33;;;14.20;78.00;;;;;;5020237;28;20038;-75
2023/10/31 05:12:10;;;;;;;3.55;2.70;;;14.20;78.00;;;;;;5023979;28;20394;-75
2023/10/31 05:14:36;;;;;;;3.38;2.53;;;14.20;78.00;;;;;;5013493;28;20029;-75
2023/10/31 05:17:02;;;;;;;2.97;2.30;;;14.20;78.10;;;;;;5025857;28;20052;-75
2023/10/31 05:19:28;;;;;;;3.80;2.28;;;14.20;78.10;;;;;;4980447;28;20045;-76
2023/10/31 05:21:53;;;;;;;3.00;2.42;;;14.10;78.00;;;;;;5030736;28;20367;-75
2023/10/31 05:24:19;;;;;;;3.42;2.35;;;14.10;78.70;;;;;;5012648;28;20061;-75
2023/10/31 05:26:45;;;;;;;3.85;2.67;;;14.10;78.00;;;;;;5024132;28;20386;-76
2023/10/31 05:29:11;;;;;;;2.85;2.22;;;14.10;78.00;;;;;;5025370;28;20381;-76
2023/10/31 05:31:37;;;;;;;3.25;2.50;;;14.10;78.00;;;;;;5025910;28;20026;-75
2023/10/31 05:34:03;;;;;;;2.72;2.20;;;14.10;78.00;;;;;;4994557;28;20437;-76
2023/10/31 05:36:29;;;;;;;3.25;2.60;;;14.10;78.00;;;;;;5012335;28;20065;-76
2023/10/31 05:38:55;;;;;;;3.30;2.53;;;14.10;78.00;;;;;;5038357;28;20052;-77
2023/10/31 05:41:21;;;;;;;4.20;2.47;;;14.10;78.10;;;;;;5031049;28;20378;-75
2023/10/31 05:43:47;;;;;;;4.18;2.80;;;14.10;78.00;;;;;;5033755;28;20111;-75
2023/10/31 05:46:14;;;;;;;3.03;2.35;;;14.10;78.00;;;;;;5041675;28;20470;-75
2023/10/31 05:48:41;;;;;;;4.10;2.72;;;14.10;78.10;;;;;;5032257;28;20061;-76
2023/10/31 05:51:18;;;;;;;3.13;2.55;;;14.10;78.10;;;;;;5034745;28;20036;-76
2023/10/31 05:53:45;;;;;;;3.60;2.35;;;14.10;78.10;;;;;;4996155;28;20034;-77
2023/10/31 05:56:12;;;;;;;3.15;2.42;;;14.10;78.10;;;;;;5024285;28;20037;-76
2023/10/31 05:58:39;;;;;;;3.47;2.30;;;14.10;78.10;;;;;;5027398;28;20029;-76
2023/10/31 06:01:05;;;;;;;2.92;2.33;;;14.10;78.10;;;;;;5025292;28;20067;-87
2023/10/31 06:03:32;;;;;;;3.30;2.60;;;14.10;78.10;;;;;;5013282;28;20405;-75
2023/10/31 06:05:57;;;;;;;3.10;2.20;;;14.10;78.10;;;;;;5026867;28;20030;-75
2023/10/31 06:08:24;;;;;;;3.28;2.45;;;14.00;78.00;;;;;;5008584;28;20551;-80
2023/10/31 06:10:50;;;;;;;3.17;2.50;;;14.00;78.10;;;;;;5025589;28;20152;-75
2023/10/31 06:13:17;;;;;;;2.90;2.17;;;14.00;78.10;;;;;;5026300;28;20017;-74
2023/10/31 06:15:43;;;;;;;2.22;1.98;;;14.00;78.10;;;;;;5033282;28;20045;-75
2023/10/31 06:18:08;;;;;;;2.58;2.15;;;14.00;78.10;;;;;;5010602;28;20091;-75
2023/10/31 06:20:35;;;;;;;4.28;2.30;;;14.00;78.10;;;;;;5021758;28;20037;-77
2023/10/31 06:23:05;;;;;;;3.45;1.98;;;14.00;78.10;;;;;;4996363;28;20420;-76
2023/10/31 06:25:30;;;;;;;2.50;1.90;;;14.00;78.10;;;;;;5030783;28;20033;-75
2023/10/31 06:27:56;;;;;;;2.60;2.05;;;14.00;78.10;;;;;;5035767;28;20036;-76
2023/10/31 06:30:24;;;;;;;2.15;1.75;;;14.00;78.00;;;;;;5016779;28;20168;-77
2023/10/31 06:32:51;;;;;;;2.15;1.88;;;14.00;78.10;;;;;;5033121;28;20036;-76
2023/10/31 06:35:16;;;;;;;2.80;1.98;;;14.00;78.10;;;;;;5007100;28;20033;-75
2023/10/31 06:37:42;;;;;;;1.90;1.70;;;14.00;78.10;;;;;;4997304;28;20370;-75
2023/10/31 06:40:08;;;;;;;1.95;1.75;;;14.00;78.10;;;;;;5037874;28;20131;-75
2023/10/31 06:42:35;;;;;;;2.13;1.80;;;14.00;78.10;;;;;;5011351;28;20025;-75
2023/10/31 06:45:01;;;;;;;2.20;1.65;;;13.90;78.10;;;;;;5020704;28;20033;-75
2023/10/31 06:47:27;;;;;;;2.03;1.70;;;13.90;78.10;;;;;;5003322;28;20039;-75
2023/10/31 06:49:53;;;;;;;2.00;1.63;;;13.90;78.10;;;;;;5029884;28;20041;-75
2023/10/31 06:52:18;;;;;;;2.30;1.73;;;13.90;78.10;;;;;;5027122;28;20032;-75
2023/10/31 06:54:44;;;;;;;1.98;1.70;;;13.90;78.10;;;;;;5025677;28;20377;-75
2023/10/31 06:57:10;;;;;;;1.70;1.60;;;13.90;78.20;;;;;;5014482;28;20041;-76
2023/10/31 06:59:35;;;;;;;2.08;1.88;;;13.90;78.20;;;;;;5016547;28;20040;-75
2023/10/31 07:02:01;;;;;;;1.92;1.70;;;13.90;78.20;;;;;;5032278;28;20030;-75
2023/10/31 07:04:27;;;;;;;2.45;1.85;;;13.80;78.20;;;;;;5010917;28;20484;-75
2023/10/31 07:06:56;;;;;;;3.05;2.00;;;13.80;78.20;;;;;;5022335;28;20536;-74
2023/10/31 07:09:23;;;;;;;2.85;2.00;;;13.80;78.20;;;;;;5015855;28;20044;-75
2023/10/31 07:11:49;;;;;;;3.00;2.00;;;13.80;78.20;;;;;;5017769;28;20405;-75
2023/10/31 07:14:15;;;;;;;2.80;2.25;;;13.90;78.20;;;;;;5039148;28;20041;-74
2023/10/31 07:16:43;;;;;;;2.42;2.00;;;13.80;78.20;;;;;;5038195;28;20426;-75
2023/10/31 07:19:10;;;;;;;2.67;2.00;;;13.90;78.20;;;;;;5020388;28;20115;-74
2023/10/31 07:21:35;;;;;;;3.63;2.33;;;13.80;78.20;;;;;;5033827;28;20059;-74
2023/10/31 07:24:01;;;;;;;3.90;2.47;;;13.80;78.20;;;;;;5025966;28;20053;-75
2023/10/31 07:26:27;;;;;;;3.45;2.35;;;13.80;78.20;;;;;;5022932;28;20034;-75
2023/10/31 07:28:53;;;;;;;2.70;2.17;;;13.80;78.20;;;;;;5010396;28;20044;-74
2023/10/31 07:31:18;;;;;;;3.88;2.70;;;13.80;78.20;;;;;;5047913;28;20041;-75
2023/10/31 07:33:45;;;;;;;2.67;2.13;;;13.80;78.20;;;;;;5036230;28;20479;-75
2023/10/31 07:36:11;;;;;;;3.78;2.92;;;13.80;78.20;;;;;;5035366;28;20485;-74
2023/10/31 07:38:37;;;;;;;4.05;2.70;;;13.80;78.30;;;;;;5047503;28;20036;-75
2023/10/31 07:41:03;;;;;;;4.63;3.15;;;13.80;78.20;;;;;;5049070;28;20119;-74
2023/10/31 07:43:29;;;;;;;3.92;2.90;;;13.80;78.30;;;;;;5028469;28;20051;-75
2023/10/31 07:45:55;;;;;;;3.80;2.92;;;13.80;78.30;;;;;;5034419;28;20462;-75
2023/10/31 07:48:20;;;;;;;3.67;2.63;;;13.80;78.30;;;;;;5027927;28;20025;-74
2023/10/31 07:50:46;;;;;;;5.10;3.35;;;13.80;78.30;;;;;;5035182;28;20037;-75
2023/10/31 07:53:12;;;;;;;4.47;3.17;;;13.80;78.30;;;;;;5037166;28;20030;-74
2023/10/31 07:55:37;;;;;;;4.80;3.30;;;13.70;78.20;;;;;;4990061;28;20040;-75
2023/10/31 07:58:03;;;;;;;5.20;3.70;;;13.70;78.20;;;;;;5038568;28;20119;-74
2023/10/31 08:00:30;;;;;;;5.30;3.67;;;13.80;78.30;;;;;;5037895;28;20030;-74
2023/10/31 08:02:56;;;;;;;5.38;3.92;;;13.80;78.30;;;;;;5038560;28;20040;-74
2023/10/31 08:05:22;;;;;;;5.90;4.10;;;13.70;78.30;;;;;;5020093;28;20041;-74
2023/10/31 08:07:47;;;;;;;5.32;3.75;;;13.70;78.30;;;;;;5045820;28;20120;-74
2023/10/31 08:10:13;;;;;;;5.28;3.72;;;13.70;78.30;;;;;;5043163;28;20398;-74
2023/10/31 08:12:39;;;;;;;6.03;3.85;;;13.80;78.40;;;;;;5032955;28;20029;-74
2023/10/31 08:15:05;;;;;;;5.35;3.95;;;13.70;78.40;;;;;;5023988;28;20462;-74
2023/10/31 08:17:31;;;;;;;5.93;3.95;;;13.70;78.40;;;;;;5039671;28;20038;-75
2023/10/31 08:19:57;;;;;;;5.53;3.92;;;13.70;78.40;;;;;;5034390;28;20045;-75
2023/10/31 08:22:22;;;;;;;5.20;3.95;;;13.70;78.40;;;;;;5019973;28;20084;-75
2023/10/31 08:24:48;;;;;;;5.43;3.90;;;13.70;78.30;;;;;;5022180;28;20430;-75
2023/10/31 08:27:14;;;;;;;5.43;4.15;;;13.80;78.40;;;;;;5041072;28;20029;-75
2023/10/31 08:29:40;;;;;;;5.47;4.15;;;13.80;78.40;;;;;;5035767;28;20029;-75
2023/10/31 08:32:06;;;;;;;5.60;4.20;;;13.70;78.40;;;;;;5044314;28;20025;-75
2023/10/31 08:34:31;;;;;;;5.40;3.92;;;13.80;78.40;;;;;;5039473;28;20065;-75
2023/10/31 08:36:58;;;;;;;5.57;4.40;;;13.80;78.40;;;;;;5033489;28;20524;-74
2023/10/31 08:39:25;;;;;;;5.78;4.10;;;13.80;78.40;;;;;;5031289;28;20029;-75
2023/10/31 08:41:56;;;;;;;5.68;3.80;;;13.80;78.40;;;;;;5032852;28;20025;-75
2023/10/31 08:44:22;;;;;;;6.00;4.03;;;13.80;78.40;;;;;;5036893;28;20502;-75
2023/10/31 08:46:48;;;;;;;5.15;3.70;;;13.80;78.40;;;;;;5046916;28;20032;-75
2023/10/31 08:49:15;;;;;;;5.30;3.88;;;13.80;78.40;;;;;;5044928;28;20029;-75
2023/10/31 08:51:42;;;;;;;5.55;4.07;;;13.80;78.40;;;;;;5045404;28;20078;-75
2023/10/31 08:54:08;;;;;;;5.43;4.15;;;13.80;78.40;;;;;;5037287;28;20029;-74
2023/10/31 08:56:34;;;;;;;5.05;3.60;;;13.80;78.30;;;;;;5045187;28;20131;-74
2023/10/31 08:59:00;;;;;;;4.90;3.83;;;13.90;78.40;;;;;;5038800;28;20064;-75
2023/10/31 09:01:27;;;;;;;5.55;4.13;;;13.90;78.40;;;;;;5044743;28;20040;-74
2023/10/31 09:03:52;;;;;;;5.22;3.80;;;13.90;78.40;;;;;;5042397;28;20167;-75
2023/10/31 09:06:18;;;;;;;5.05;3.50;;;13.90;78.40;;;;;;5039641;28;20104;-74
2023/10/31 09:08:44;;;;;;;4.68;3.78;;;13.90;78.40;;;;;;5007268;28;20482;-75
2023/10/31 09:11:10;;;;;;;4.35;3.60;;;13.90;78.40;;;;;;5034269;28;20107;-75
2023/10/31 09:13:35;;;;;;;4.50;3.63;;;14.00;78.50;;;;;;5042359;28;20604;-75
2023/10/31 09:16:01;;;;;;;5.07;3.75;;;14.00;78.50;;;;;;5023148;28;20033;-75
2023/10/31 09:18:27;;;;;;;4.63;3.50;;;14.00;78.40;;;;;;5016527;28;20022;-75
2023/10/31 09:20:53;;;;;;;5.38;3.38;;;14.00;78.40;;;;;;5029545;28;20068;-75
2023/10/31 09:23:19;;;;;;;4.35;3.20;;;14.00;78.40;;;;;;5040220;28;20033;-75
2023/10/31 09:25:45;;;;;;;4.50;3.38;;;14.00;78.50;;;;;;5023224;28;20037;-75
2023/10/31 09:28:11;;;;;;;4.25;3.22;;;14.00;78.40;;;;;;5025307;28;20063;-74
2023/10/31 09:30:37;;;;;;;4.40;3.33;;;14.10;78.40;;;;;;5028986;28;20067;-74
2023/10/31 09:33:03;;;;;;;3.95;2.78;;;14.10;78.50;;;;;;5033243;28;20032;-75
2023/10/31 09:35:29;;;;;;;4.15;3.22;;;14.10;78.40;;;;;;5041841;28;20033;-74
2023/10/31 09:37:55;;;;;;;4.35;3.15;;;14.10;78.40;;;;;;5022365;28;20033;-75
2023/10/31 09:40:21;;;;;;;3.55;2.88;;;14.20;78.40;;;;;;5032262;28;20064;-74
2023/10/31 09:42:49;;;;;;;5.00;3.35;;;14.20;78.40;;;;;;5033383;28;20498;-75
2023/10/31 09:45:15;;;;;;;3.92;2.88;;;14.20;78.40;;;;;;5019584;28;20060;-75
2023/10/31 09:47:42;;;;;;;5.78;3.83;;;14.20;78.30;;;;;;5017018;28;20454;-75
2023/10/31 09:50:09;;;;;;;4.53;3.22;;;14.20;78.30;;;;;;5021273;28;20033;-75
2023/10/31 09:52:36;;;;;;;4.15;2.78;;;14.30;78.30;;;;;;5015894;28;20445;-75
2023/10/31 09:55:03;;;;;;;4.10;3.08;;;14.30;78.30;;;;;;5026321;28;20531;-75
2023/10/31 09:57:29;;;;;;;3.85;2.95;;;14.30;78.30;;;;;;5037160;28;20033;-75
2023/10/31 09:59:55;;;;;;;3.50;2.75;;;14.40;78.30;;;;;;5016907;28;20043;-75
2023/10/31 10:02:20;;;;;;;4.00;3.20;;;14.40;78.30;;;;;;5040573;28;20100;-75
2023/10/31 10:04:48;;;;;;;3.67;3.00;;;14.40;78.30;;;;;;5016458;28;20448;-75
2023/10/31 10:07:19;;;;;;;5.75;3.80;;;14.40;78.30;;;;;;5041524;28;20112;-75
2023/10/31 10:09:46;;;;;;;3.95;3.13;;;14.40;78.40;;;;;;5029304;28;20099;-75
2023/10/31 10:12:13;;;;;;;4.57;3.33;;;14.40;78.40;;;;;;5007049;28;20029;-75
2023/10/31 10:14:39;;;;;;;4.88;3.15;;;14.50;78.50;;;;;;5039842;28;20029;-74
2023/10/31 10:17:22;;;;;;;4.93;3.67;;;14.50;78.50;;;;;;5034834;28;20038;-75
2023/10/31 10:19:48;;;;;;;4.05;3.13;;;14.50;78.50;;;;;;5023058;28;20486;-75
2023/10/31 10:22:14;;;;;;;4.47;3.40;;;14.50;78.40;;;;;;5039839;28;20026;-75
2023/10/31 10:24:41;;;;;;;4.53;3.35;;;14.50;78.50;;;;;;5020082;28;20033;-75
2023/10/31 10:27:08;;;;;;;4.78;3.85;;;14.50;78.50;;;;;;5040059;28;20025;-75
2023/10/31 10:29:37;;;;;;;4.75;3.67;;;14.60;78.50;;;;;;5034487;28;20037;-75
2023/10/31 10:32:08;;;;;;;4.88;3.38;;;14.60;78.50;;;;;;5038987;28;20029;-75
2023/10/31 10:34:33;;;;;;;4.47;3.33;;;14.60;78.60;;;;;;5028936;28;20067;-75
2023/10/31 10:37:00;;;;;;;4.38;3.45;;;14.70;78.50;;;;;;5036255;28;20045;-74
2023/10/31 10:39:27;;;;;;;4.63;3.80;;;14.70;78.60;;;;;;5043438;28;20033;-75
2023/10/31 10:41:58;;;;;;;4.50;3.50;;;14.70;78.60;;;;;;5039975;28;20470;-75
2023/10/31 10:44:45;;;;;;;5.82;3.75;;;14.70;78.60;;;;;;5037001;28;20025;-75
2023/10/31 10:47:12;;;;;;;5.18;3.75;;;14.70;78.60;;;;;;5037731;28;20033;-74
2023/10/31 10:49:42;;;;;;;5.13;3.50;;;14.80;78.50;;;;;;5043821;28;20091;-75
2023/10/31 10:52:40;;;;;;;4.68;3.38;;;14.80;78.60;;;;;;5022283;28;20025;-75
2023/10/31 10:55:19;;;;;;;3.50;2.92;;;14.80;78.60;;;;;;5038027;28;20593;-75
2023/10/31 10:58:00;;;;;;;4.38;3.50;;;14.80;78.50;;;;;;5042230;28;20041;-75
2023/10/31 11:00:26;;;;;;;4.82;3.30;;;14.80;78.60;;;;;;5026274;28;20028;-75
2023/10/31 11:02:56;;;;;;;4.20;3.30;;;14.80;78.50;;;;;;5033516;28;20505;-75
2023/10/31 11:05:24;;;;;;;4.13;3.28;;;14.90;78.60;;;;;;5035371;28;20037;-74
2023/10/31 11:07:51;;;;;;;4.30;3.08;;;14.90;78.60;;;;;;5036951;28;20030;-74
2023/10/31 11:10:20;;;;;;;5.20;3.65;;;14.90;78.50;;;;;;5025471;28;20248;-75
2023/10/31 11:12:46;;;;;;;4.38;3.15;;;14.90;78.50;;;;;;5030583;28;20057;-75
2023/10/31 11:15:15;;;;;;;4.03;3.20;;;14.90;78.50;;;;;;5029437;28;20061;-75
2023/10/31 11:17:43;;;;;;;3.92;3.10;;;14.90;78.50;;;;;;5039203;28;20026;-75
2023/10/31 11:20:10;;;;;;;3.85;3.10;;;15.00;78.50;;;;;;5028898;28;20048;-75
2023/10/31 11:22:42;;;;;;;4.13;3.28;;;15.00;78.50;;;;;;5014905;28;20461;-75
2023/10/31 11:25:38;;;;;;;3.80;3.20;;;15.00;78.50;;;;;;5044559;28;20350;-75
2023/10/31 11:28:16;;;;;;;4.18;3.45;;;15.10;78.60;;;;;;5034978;28;20041;-75
2023/10/31 11:30:45;;;;;;;4.43;3.33;;;15.10;78.50;;;;;;5013139;28;20036;-76
2023/10/31 11:33:16;;;;;;;5.65;3.70;;;15.10;79.00;;;;;;5040277;28;20035;-75
2023/10/31 11:35:44;;;;;;;4.70;3.92;;;15.10;78.40;;;;;;5031047;28;20033;-75
2023/10/31 11:38:11;;;;;;;4.55;3.85;;;15.10;78.30;;;;;;5032787;28;20065;-75
2023/10/31 11:40:57;;;;;;;5.13;4.30;;;15.20;78.40;;;;;;5034680;28;20030;-74
2023/10/31 11:43:23;;;;;;;5.90;4.25;;;15.20;78.30;;;;;;5022880;28;20466;-75
2023/10/31 11:45:49;;;;;;;6.00;4.43;;;15.20;78.20;;;;;;5018209;28;20109;-75
2023/10/31 11:48:15;;;;;;;5.18;4.50;;;15.20;78.20;;;;;;5008625;28;20025;-74
2023/10/31 11:50:41;;;;;;;5.65;4.68;;;15.30;78.30;;;;;;5010567;28;20043;-75
2023/10/31 11:53:08;;;;;;;5.55;4.70;;;15.40;78.30;;;;;;5043293;28;20112;-75
2023/10/31 11:55:36;;;;;;;7.45;5.40;;;15.30;78.20;;;;;;5034110;28;20044;-75
2023/10/31 11:58:25;;;;;;;6.85;5.13;;;15.40;78.20;;;;;;5042760;28;20128;-76
2023/10/31 12:01:02;;;;;;;7.05;5.43;;;15.40;78.20;;;;;;5031946;28;20068;-75
2023/10/31 12:03:36;;;;;;;5.43;4.60;;;15.50;78.10;;;;;;5037575;28;20037;-75
2023/10/31 12:06:01;;;;;;;5.97;5.10;;;15.50;78.00;;;;;;5022371;28;20026;-75
2023/10/31 12:08:41;;;;;;;5.90;5.00;;;15.50;77.90;;;;;;5037216;28;20033;-75
2023/10/31 12:11:12;;;;;;;6.40;5.05;;;15.50;77.90;;;;;;5018653;28;20048;-76
2023/10/31 12:14:01;;;;;;;6.50;5.47;;;15.60;77.80;;;;;;5037994;28;20475;-75
2023/10/31 12:16:30;;;;;;;5.80;4.78;;;15.60;77.80;;;;;;5036260;28;20037;-74
2023/10/31 12:18:59;;;;;;;6.72;5.38;;;15.60;77.70;;;;;;5042397;28;20041;-75
2023/10/31 12:21:46;;;;;;;7.43;5.72;;;15.60;77.70;;;;;;5046609;28;20055;-75
2023/10/31 12:24:14;;;;;;;6.68;5.20;;;15.60;77.80;;;;;;5022970;28;20482;-76
2023/10/31 12:26:41;;;;;;;6.55;5.38;;;15.70;77.70;;;;;;5043004;28;20033;-75
2023/10/31 12:29:11;;;;;;;7.30;5.82;;;15.70;77.70;;;;;;5038101;28;20095;-75
2023/10/31 12:31:45;;;;;;;7.32;5.65;;;15.70;77.80;;;;;;5042237;28;20101;-75
2023/10/31 12:34:11;;;;;;;7.90;6.15;;;15.70;77.70;;;;;;5034155;28;20139;-75
2023/10/31 12:36:38;;;;;;;6.90;5.63;;;15.80;77.70;;;;;;5021273;28;20503;-75
2023/10/31 12:39:07;;;;;;;7.05;5.55;;;15.80;77.80;;;;;;5040981;28;20094;-74
2023/10/31 12:41:32;;;;;;;7.78;6.03;;;15.80;77.80;;;;;;5038094;28;20080;-77
2023/10/31 12:44:00;;;;;;;8.25;6.43;;;15.80;77.80;;;;;;5019725;28;20474;-75
2023/10/31 12:46:29;;;;;;;8.25;6.22;;;15.80;77.80;;;;;;5030557;28;20025;-75